createdAt,value
2023-02-22T00:03:16.173Z,8.80
2023-02-22T00:08:22.068Z,10.13
2023-02-22T00:13:25.295Z,10.32
2023-02-22T00:18:29.542Z,9.60
2023-02-22T00:23:35.055Z,10.02
2023-02-22T00:28:38.363Z,9.02
2023-02-22T00:33:42.554Z,10.27
2023-02-22T00:38:46.655Z,10.50
2023-02-22T00:43:50.872Z,11.35
2023-02-22T00:48:55.416Z,10.65
2023-02-22T00:53:59.501Z,10.00
2023-02-22T00:59:02.500Z,11.23
2023-02-22T01:04:07.392Z,11.55
2023-02-22T01:09:12.412Z,9.80
2023-02-22T01:14:18.239Z,9.53
2023-02-22T01:19:21.764Z,9.05
2023-02-22T01:24:25.932Z,9.25
2023-02-22T01:29:30.724Z,10.17
2023-02-22T01:34:34.134Z,9.43
2023-02-22T01:39:38.418Z,9.98
2023-02-22T01:44:42.503Z,11.18
2023-02-22T01:49:48.004Z,10.05
2023-02-22T01:54:57.002Z,10.98
2023-02-22T02:00:09.800Z,11.48
2023-02-22T02:05:16.137Z,12.13
2023-02-22T02:10:21.392Z,11.93
2023-02-22T02:15:28.923Z,12.80
2023-02-22T02:20:43.239Z,13.93
2023-02-22T02:26:23.732Z,10.75
2023-02-22T02:31:58.231Z,13.38
2023-02-22T02:37:10.122Z,14.57
2023-02-22T02:42:18.579Z,14.52
2023-02-22T02:47:28.920Z,17.42
2023-02-22T02:52:35.252Z,19.38
2023-02-22T02:57:40.138Z,17.10
2023-02-22T03:02:56.857Z,17.95
2023-02-22T03:08:07.675Z,19.55
2023-02-22T03:13:17.468Z,19.45
2023-02-22T03:18:29.356Z,19.30
2023-02-22T03:23:38.611Z,18.80
2023-02-22T03:28:44.085Z,19.05
2023-02-22T03:33:54.413Z,20.05
2023-02-22T03:39:00.679Z,17.40
2023-02-22T03:44:08.586Z,19.17
2023-02-22T03:49:18.199Z,19.63
2023-02-22T03:54:21.173Z,17.60
2023-02-22T03:59:27.373Z,16.27
2023-02-22T04:04:31.579Z,14.57
2023-02-22T04:09:35.181Z,14.60
2023-02-22T04:14:37.946Z,14.02
2023-02-22T04:19:42.030Z,14.15
2023-02-22T04:24:45.361Z,14.07
2023-02-22T04:29:48.294Z,13.02
2023-02-22T04:34:52.696Z,13.90
2023-02-22T04:39:55.634Z,13.90
2023-02-22T04:44:58.666Z,14.40
2023-02-22T04:50:03.848Z,17.42
2023-02-22T04:55:07.536Z,20.50
2023-02-22T05:00:17.217Z,21.35
2023-02-22T05:05:22.965Z,17.92
2023-02-22T05:10:25.841Z,18.75
2023-02-22T05:15:28.544Z,21.05
2023-02-22T05:20:34.637Z,16.85
2023-02-22T05:25:38.690Z,18.30
2023-02-22T05:30:42.174Z,16.23
2023-02-22T05:35:46.363Z,17.00
2023-02-22T05:40:49.137Z,19.52
2023-02-22T05:45:51.931Z,16.80
2023-02-22T05:50:56.143Z,17.40
2023-02-22T05:55:58.997Z,17.75
2023-02-22T06:01:03.303Z,15.52
2023-02-22T06:06:08.293Z,17.63
2023-02-22T06:11:11.845Z,16.00
2023-02-22T06:16:14.910Z,16.55
2023-02-22T06:21:19.293Z,17.30
2023-02-22T06:26:22.875Z,15.75
2023-02-22T06:31:25.606Z,16.05
2023-02-22T06:36:30.150Z,19.42
2023-02-22T06:41:32.859Z,18.63
2023-02-22T06:46:36.010Z,15.07
2023-02-22T06:51:40.253Z,16.65
2023-02-22T06:56:42.962Z,16.08
2023-02-22T07:01:45.956Z,15.35
2023-02-22T07:06:51.884Z,15.90
2023-02-22T07:11:56.065Z,16.60
2023-02-22T07:16:58.850Z,14.48
2023-02-22T07:22:04.295Z,19.80
2023-02-22T07:27:10.090Z,14.70
2023-02-22T07:32:13.436Z,17.85
2023-02-22T07:37:17.731Z,18.83
2023-02-22T07:42:20.544Z,17.45
2023-02-22T07:47:24.368Z,17.42
2023-02-22T07:52:29.348Z,21.20
2023-02-22T07:57:32.093Z,20.27
2023-02-22T08:02:35.397Z,17.20
2023-02-22T08:07:39.548Z,15.00
2023-02-22T08:12:42.372Z,14.65
2023-02-22T08:17:45.217Z,15.48
2023-02-22T08:22:50.245Z,16.23
2023-02-22T08:27:58.757Z,15.48
2023-02-22T08:33:05.187Z,16.77
2023-02-22T08:38:18.476Z,16.17
2023-02-22T08:43:22.325Z,14.88
2023-02-22T08:48:25.779Z,17.23
2023-02-22T08:53:32.790Z,18.75
2023-02-22T08:58:35.978Z,18.25
2023-02-22T09:03:38.840Z,15.50
2023-02-22T09:08:43.066Z,20.67
2023-02-22T09:13:45.875Z,16.95
2023-02-22T09:18:48.837Z,20.25
2023-02-22T09:23:54.663Z,18.80
2023-02-22T09:28:58.091Z,21.20
2023-02-22T09:34:02.688Z,16.50
2023-02-22T09:39:09.121Z,28.95
2023-02-22T09:44:20.418Z,26.75
2023-02-22T09:49:29.319Z,15.07
2023-02-22T09:54:40.105Z,16.17
2023-02-22T09:59:47.978Z,16.67
2023-02-22T10:04:58.456Z,18.52
2023-02-22T10:10:07.133Z,14.77
2023-02-22T10:15:42.268Z,21.38
2023-02-22T10:20:54.715Z,19.08
2023-02-22T10:26:14.672Z,17.48
2023-02-22T10:31:23.779Z,18.42
2023-02-22T10:36:27.935Z,17.50
2023-02-22T10:41:34.328Z,15.30
2023-02-22T10:46:39.780Z,15.83
2023-02-22T10:51:42.749Z,14.80
2023-02-22T10:56:51.228Z,22.27
2023-02-22T11:01:55.961Z,13.60
2023-02-22T11:07:21.992Z,19.45
2023-02-22T11:12:32.575Z,16.17
2023-02-22T11:17:35.982Z,14.93
2023-02-22T11:22:42.089Z,14.85
2023-02-22T11:27:47.832Z,20.40
2023-02-22T11:32:54.540Z,19.50
2023-02-22T11:38:11.058Z,18.77
2023-02-22T11:43:19.158Z,16.33
2023-02-22T11:48:23.201Z,15.68
2023-02-22T11:53:32.791Z,15.60
2023-02-22T11:58:47.552Z,16.88
2023-02-22T12:04:24.250Z,17.10
2023-02-22T12:09:35.773Z,23.80
2023-02-22T12:14:49.380Z,15.93
2023-02-22T12:19:55.911Z,17.17
2023-02-22T12:25:09.418Z,15.80
2023-02-22T12:30:17.474Z,17.80
2023-02-22T12:35:24.826Z,23.30
2023-02-22T12:40:36.788Z,20.50
2023-02-22T12:45:48.268Z,18.75
2023-02-22T12:50:57.230Z,26.80
2023-02-22T12:56:06.568Z,17.75
2023-02-22T13:01:16.170Z,17.45
2023-02-22T13:06:31.897Z,18.63
2023-02-22T13:11:41.977Z,16.42
2023-02-22T13:16:52.777Z,14.43
2023-02-22T13:22:02.041Z,14.10
2023-02-22T13:27:10.367Z,13.50
2023-02-22T13:32:29.784Z,15.35
2023-02-22T13:37:59.424Z,14.60
2023-02-22T13:43:35.320Z,15.30
2023-02-22T13:49:02.596Z,16.17
2023-02-22T13:54:08.567Z,15.32
2023-02-22T13:59:25.421Z,15.73
2023-02-22T14:04:48.773Z,17.00
2023-02-22T14:09:53.656Z,14.38
2023-02-22T14:15:29.045Z,19.38
2023-02-22T14:20:38.174Z,16.15
2023-02-22T14:25:43.784Z,17.77
2023-02-22T14:30:46.677Z,14.63
2023-02-22T14:35:52.594Z,15.75
2023-02-22T14:40:59.679Z,14.75
2023-02-22T14:46:05.388Z,14.35
2023-02-22T14:51:21.971Z,12.45
2023-02-22T14:56:36.161Z,14.13
2023-02-22T15:01:50.833Z,15.30
2023-02-22T15:07:12.602Z,14.88
2023-02-22T15:12:25.490Z,15.43
2023-02-22T15:17:28.712Z,14.10
2023-02-22T15:22:37.647Z,14.60
2023-02-22T15:27:45.985Z,16.55
2023-02-22T15:33:03.152Z,16.50
2023-02-22T15:38:20.105Z,15.40
2023-02-22T15:43:27.752Z,14.67
2023-02-22T15:48:32.958Z,13.57
2023-02-22T15:53:44.375Z,14.73
2023-02-22T15:58:49.054Z,13.65
2023-02-22T16:03:54.539Z,14.50
2023-02-22T16:09:02.248Z,14.98
2023-02-22T16:14:07.448Z,18.02
2023-02-22T16:19:33.519Z,15.52
2023-02-22T16:24:37.637Z,15.73
2023-02-22T16:29:40.492Z,17.73
2023-02-22T16:34:43.415Z,39.05
2023-02-22T16:39:47.570Z,21.05
2023-02-22T16:44:50.522Z,20.88
2023-02-22T16:49:53.712Z,18.85
2023-02-22T16:54:57.822Z,26.85
2023-02-22T17:00:00.663Z,21.73
2023-02-22T17:05:03.511Z,19.35
2023-02-22T17:10:08.857Z,18.08
2023-02-22T17:15:20.363Z,18.15
2023-02-22T17:20:30.272Z,18.35
2023-02-22T17:25:38.652Z,20.02
2023-02-22T17:30:44.067Z,19.80
2023-02-22T17:35:47.955Z,18.55
2023-02-22T17:40:52.471Z,20.30
2023-02-22T17:45:55.582Z,20.45
2023-02-22T17:50:58.354Z,21.27
2023-02-22T17:56:07.772Z,22.98
2023-02-22T18:01:21.490Z,23.10
2023-02-22T18:06:27.561Z,26.00
2023-02-22T18:11:32.677Z,25.75
2023-02-22T18:16:36.561Z,24.90
2023-02-22T18:21:39.279Z,24.08
2023-02-22T18:26:43.940Z,24.63
2023-02-22T18:31:46.830Z,25.27
2023-02-22T18:36:50.333Z,24.23
2023-02-22T18:41:54.453Z,21.35
2023-02-22T18:46:57.281Z,21.58
2023-02-22T18:52:00.138Z,28.05
2023-02-22T18:57:04.222Z,26.85
2023-02-22T19:02:07.893Z,26.40
2023-02-22T19:07:17.601Z,30.20
2023-02-22T19:12:22.962Z,23.90
2023-02-22T19:17:26.265Z,22.83
2023-02-22T19:22:32.692Z,20.30
2023-02-22T19:27:36.904Z,19.87
2023-02-22T19:32:44.682Z,21.73
2023-02-22T19:37:48.284Z,20.75
2023-02-22T19:42:54.500Z,19.15
2023-02-22T19:47:57.239Z,21.20
2023-02-22T19:53:00.225Z,19.73
2023-02-22T19:58:04.404Z,19.42
2023-02-22T20:03:09.218Z,18.23
2023-02-22T20:08:11.989Z,18.92
2023-02-22T20:13:17.519Z,19.67
2023-02-22T20:18:22.799Z,23.45
2023-02-22T20:23:25.631Z,22.98
2023-02-22T20:28:29.852Z,27.85
2023-02-22T20:33:32.707Z,27.13
2023-02-22T20:38:35.549Z,27.60
2023-02-22T20:43:39.743Z,25.63
2023-02-22T20:48:42.945Z,26.13
2023-02-22T20:53:46.577Z,26.80
2023-02-22T20:58:52.024Z,29.70
2023-02-22T21:03:54.967Z,27.02
2023-02-22T21:08:59.970Z,26.98
2023-02-22T21:14:04.684Z,26.05
2023-02-22T21:19:08.921Z,30.42
2023-02-22T21:24:12.276Z,30.10
2023-02-22T21:29:16.340Z,26.40
2023-02-22T21:34:20.027Z,27.60
2023-02-22T21:39:28.115Z,27.98
2023-02-22T21:44:32.284Z,28.27
2023-02-22T21:49:35.184Z,31.88
2023-02-22T21:54:38.421Z,28.02
2023-02-22T21:59:42.825Z,30.48
2023-02-22T22:04:45.851Z,29.75
2023-02-22T22:09:56.427Z,29.48
2023-02-22T22:15:00.516Z,32.67
2023-02-22T22:20:05.437Z,30.67
2023-02-22T22:25:08.779Z,29.38
2023-02-22T22:30:16.495Z,27.55
2023-02-22T22:35:19.293Z,29.05
2023-02-22T22:40:22.061Z,25.70
2023-02-22T22:45:26.172Z,25.05
2023-02-22T22:50:29.890Z,24.73
2023-02-22T22:55:32.662Z,26.55
2023-02-22T23:00:37.434Z,24.52
2023-02-22T23:05:43.292Z,29.25
2023-02-22T23:10:46.651Z,26.13
2023-02-22T23:15:54.694Z,40.08
2023-02-22T23:21:05.371Z,32.10
2023-02-22T23:26:15.721Z,24.60
2023-02-22T23:31:21.372Z,24.80
2023-02-22T23:36:24.457Z,25.95
2023-02-22T23:41:29.792Z,24.50
2023-02-22T23:46:33.938Z,25.75
2023-02-22T23:51:39.992Z,25.58
2023-02-22T23:56:47.175Z,25.98
